sensor_id;sensor_type;location;lat;lon;timestamp;pressure;altitude;pressure_sealevel;temperature;humidity
84147;BME280;74267;50.434;7.398;2024-02-26T00:02:06;98988.41;;;7.68;75.97
84147;BME280;74267;50.434;7.398;2024-02-26T00:04:32;98995.22;;;7.69;76.82
84147;BME280;74267;50.434;7.398;2024-02-26T00:06:57;98985.63;;;7.63;78.15
84147;BME280;74267;50.434;7.398;2024-02-26T00:09:23;98976.09;;;7.57;77.53
84147;BME280;74267;50.434;7.398;2024-02-26T00:11:48;98968.53;;;7.48;77.24
84147;BME280;74267;50.434;7.398;2024-02-26T00:14:14;98958.66;;;7.50;77.09
84147;BME280;74267;50.434;7.398;2024-02-26T00:16:42;98961.28;;;7.50;76.39
84147;BME280;74267;50.434;7.398;2024-02-26T00:19:07;98960.81;;;7.53;75.95
84147;BME280;74267;50.434;7.398;2024-02-26T00:21:33;98957.75;;;7.57;73.72
84147;BME280;74267;50.434;7.398;2024-02-26T00:23:58;98953.06;;;7.58;75.01
84147;BME280;74267;50.434;7.398;2024-02-26T00:26:23;98962.50;;;7.59;75.89
84147;BME280;74267;50.434;7.398;2024-02-26T00:28:49;98966.75;;;7.61;74.37
84147;BME280;74267;50.434;7.398;2024-02-26T00:31:14;98961.06;;;7.64;75.28
84147;BME280;74267;50.434;7.398;2024-02-26T00:33:40;98978.72;;;7.68;74.45
84147;BME280;74267;50.434;7.398;2024-02-26T00:36:05;98965.84;;;7.67;74.74
84147;BME280;74267;50.434;7.398;2024-02-26T00:38:31;98969.72;;;7.76;76.68
84147;BME280;74267;50.434;7.398;2024-02-26T00:40:56;98972.22;;;7.71;77.77
84147;BME280;74267;50.434;7.398;2024-02-26T00:43:21;98955.47;;;7.60;77.39
84147;BME280;74267;50.434;7.398;2024-02-26T00:45:47;98953.06;;;7.58;78.61
84147;BME280;74267;50.434;7.398;2024-02-26T00:48:12;98959.78;;;7.54;79.04
84147;BME280;74267;50.434;7.398;2024-02-26T00:50:39;98961.28;;;7.50;77.66
84147;BME280;74267;50.434;7.398;2024-02-26T00:53:04;98946.22;;;7.46;78.28
84147;BME280;74267;50.434;7.398;2024-02-26T00:55:29;98949.66;;;7.46;78.16
84147;BME280;74267;50.434;7.398;2024-02-26T00:57:55;98932.91;;;7.47;77.55
84147;BME280;74267;50.434;7.398;2024-02-26T01:00:20;98934.38;;;7.43;77.15
84147;BME280;74267;50.434;7.398;2024-02-26T01:02:46;98936.09;;;7.49;77.50
84147;BME280;74267;50.434;7.398;2024-02-26T01:05:14;98926.09;;;7.58;79.48
84147;BME280;74267;50.434;7.398;2024-02-26T01:07:40;98936.66;;;7.51;77.97
84147;BME280;74267;50.434;7.398;2024-02-26T01:10:09;98943.94;;;7.49;77.00
84147;BME280;74267;50.434;7.398;2024-02-26T01:12:35;98944.97;;;7.48;76.56
84147;BME280;74267;50.434;7.398;2024-02-26T01:15:04;98951.94;;;7.54;77.08
84147;BME280;74267;50.434;7.398;2024-02-26T01:17:29;98962.84;;;7.51;78.13
84147;BME280;74267;50.434;7.398;2024-02-26T01:19:55;98946.00;;;7.47;76.87
84147;BME280;74267;50.434;7.398;2024-02-26T01:22:20;98943.16;;;7.49;77.91
84147;BME280;74267;50.434;7.398;2024-02-26T01:24:46;98945.81;;;7.61;78.21
84147;BME280;74267;50.434;7.398;2024-02-26T01:27:11;98951.03;;;7.61;78.36
84147;BME280;74267;50.434;7.398;2024-02-26T01:29:37;98933.72;;;7.59;79.20
84147;BME280;74267;50.434;7.398;2024-02-26T01:32:03;98943.03;;;7.55;78.72
84147;BME280;74267;50.434;7.398;2024-02-26T01:34:30;98925.28;;;7.46;78.01
84147;BME280;74267;50.434;7.398;2024-02-26T01:36:56;98926.66;;;7.48;78.81
84147;BME280;74267;50.434;7.398;2024-02-26T01:39:21;98926.56;;;7.55;79.93
84147;BME280;74267;50.434;7.398;2024-02-26T01:41:47;98940.88;;;7.64;78.74
84147;BME280;74267;50.434;7.398;2024-02-26T01:44:13;98930.53;;;7.57;79.34
84147;BME280;74267;50.434;7.398;2024-02-26T01:46:41;98920.63;;;7.59;78.99
84147;BME280;74267;50.434;7.398;2024-02-26T01:49:08;98927.91;;;7.57;80.36
84147;BME280;74267;50.434;7.398;2024-02-26T01:51:35;98911.16;;;7.58;78.82
84147;BME280;74267;50.434;7.398;2024-02-26T01:54:02;98916.31;;;7.53;78.17
84147;BME280;74267;50.434;7.398;2024-02-26T01:56:29;98928.59;;;7.53;78.42
84147;BME280;74267;50.434;7.398;2024-02-26T01:58:57;98906.84;;;7.52;76.46
84147;BME280;74267;50.434;7.398;2024-02-26T02:01:27;98908.00;;;7.57;77.59
84147;BME280;74267;50.434;7.398;2024-02-26T02:03:56;98913.25;;;7.57;77.71
84147;BME280;74267;50.434;7.398;2024-02-26T02:06:23;98914.00;;;7.57;78.21
84147;BME280;74267;50.434;7.398;2024-02-26T02:08:48;98908.44;;;7.53;76.32
84147;BME280;74267;50.434;7.398;2024-02-26T02:11:14;98919.16;;;7.64;77.91
84147;BME280;74267;50.434;7.398;2024-02-26T02:13:40;98938.50;;;7.63;78.04
84147;BME280;74267;50.434;7.398;2024-02-26T02:16:05;98957.88;;;7.62;76.56
84147;BME280;74267;50.434;7.398;2024-02-26T02:18:31;98939.44;;;7.57;76.61
84147;BME280;74267;50.434;7.398;2024-02-26T02:20:56;98954.66;;;7.59;76.29
84147;BME280;74267;50.434;7.398;2024-02-26T02:23:24;98959.91;;;7.59;76.75
84147;BME280;74267;50.434;7.398;2024-02-26T02:25:50;98968.78;;;7.58;77.16
84147;BME280;74267;50.434;7.398;2024-02-26T02:28:15;98959.78;;;7.54;77.18
84147;BME280;74267;50.434;7.398;2024-02-26T02:30:40;98951.69;;;7.44;78.97
84147;BME280;74267;50.434;7.398;2024-02-26T02:33:06;98961.13;;;7.45;78.92
84147;BME280;74267;50.434;7.398;2024-02-26T02:35:32;98952.28;;;7.46;78.37
84147;BME280;74267;50.434;7.398;2024-02-26T02:37:57;98951.94;;;7.54;78.54
84147;BME280;74267;50.434;7.398;2024-02-26T02:40:23;98945.66;;;7.55;80.01
84147;BME280;74267;50.434;7.398;2024-02-26T02:42:48;98954.66;;;7.59;81.91
84147;BME280;74267;50.434;7.398;2024-02-26T02:45:14;98949.09;;;7.56;82.52
84147;BME280;74267;50.434;7.398;2024-02-26T02:47:39;98947.16;;;7.51;83.03
84147;BME280;74267;50.434;7.398;2024-02-26T02:50:05;98955.09;;;7.33;83.28
84147;BME280;74267;50.434;7.398;2024-02-26T02:52:30;98954.84;;;7.23;83.74
84147;BME280;74267;50.434;7.398;2024-02-26T02:54:56;98967.34;;;7.21;83.56
84147;BME280;74267;50.434;7.398;2024-02-26T02:57:21;98958.00;;;7.25;83.29
84147;BME280;74267;50.434;7.398;2024-02-26T02:59:47;98961.06;;;7.22;84.29
84147;BME280;74267;50.434;7.398;2024-02-26T03:02:12;98961.41;;;7.14;83.25
84147;BME280;74267;50.434;7.398;2024-02-26T03:04:37;98963.34;;;7.19;84.54
84147;BME280;74267;50.434;7.398;2024-02-26T03:07:03;98957.09;;;7.20;84.66
84147;BME280;74267;50.434;7.398;2024-02-26T03:09:28;98961.50;;;7.19;84.44
84147;BME280;74267;50.434;7.398;2024-02-26T03:11:53;98957.56;;;7.28;84.75
84147;BME280;74267;50.434;7.398;2024-02-26T03:14:19;98962.97;;;7.15;83.07
84147;BME280;74267;50.434;7.398;2024-02-26T03:16:44;98957.53;;;7.17;82.44
84147;BME280;74267;50.434;7.398;2024-02-26T03:19:09;98965.84;;;7.25;81.69
84147;BME280;74267;50.434;7.398;2024-02-26T03:21:35;98964.84;;;7.26;82.40
84147;BME280;74267;50.434;7.398;2024-02-26T03:24:00;98967.47;;;7.26;82.54
84147;BME280;74267;50.434;7.398;2024-02-26T03:26:25;98969.19;;;7.32;83.63
84147;BME280;74267;50.434;7.398;2024-02-26T03:28:51;98969.63;;;7.29;82.73
84147;BME280;74267;50.434;7.398;2024-02-26T03:31:16;98966.00;;;7.30;84.17
84147;BME280;74267;50.434;7.398;2024-02-26T03:33:41;98961.91;;;7.34;84.30
84147;BME280;74267;50.434;7.398;2024-02-26T03:36:07;98959.06;;;7.36;83.79
84147;BME280;74267;50.434;7.398;2024-02-26T03:38:32;98960.31;;;7.33;84.06
84147;BME280;74267;50.434;7.398;2024-02-26T03:40:58;98961.00;;;7.29;84.08
84147;BME280;74267;50.434;7.398;2024-02-26T03:43:23;98966.00;;;7.30;85.02
84147;BME280;74267;50.434;7.398;2024-02-26T03:45:49;98969.44;;;7.42;85.64
84147;BME280;74267;50.434;7.398;2024-02-26T03:48:14;98972.22;;;7.29;86.23
84147;BME280;74267;50.434;7.398;2024-02-26T03:50:39;98975.59;;;7.36;86.88
84147;BME280;74267;50.434;7.398;2024-02-26T03:53:05;98967.59;;;7.31;85.80
84147;BME280;74267;50.434;7.398;2024-02-26T03:55:30;98973.72;;;7.25;85.78
84147;BME280;74267;50.434;7.398;2024-02-26T03:57:56;98973.81;;;7.19;85.47
84147;BME280;74267;50.434;7.398;2024-02-26T04:00:22;98972.00;;;7.31;86.61
84147;BME280;74267;50.434;7.398;2024-02-26T04:02:47;98973.28;;;7.28;85.29
84147;BME280;74267;50.434;7.398;2024-02-26T04:05:13;98980.56;;;7.26;85.61
84147;BME280;74267;50.434;7.398;2024-02-26T04:07:39;98981.78;;;7.24;86.48
84147;BME280;74267;50.434;7.398;2024-02-26T04:10:12;98984.63;;;7.22;86.47
84147;BME280;74267;50.434;7.398;2024-02-26T04:12:41;98974.16;;;7.22;87.60
84147;BME280;74267;50.434;7.398;2024-02-26T04:15:10;98977.00;;;7.21;86.61
84147;BME280;74267;50.434;7.398;2024-02-26T04:17:36;98977.22;;;7.19;86.91
84147;BME280;74267;50.434;7.398;2024-02-26T04:20:03;98978.38;;;7.23;87.93
84147;BME280;74267;50.434;7.398;2024-02-26T04:22:28;98972.56;;;7.21;87.91
84147;BME280;74267;50.434;7.398;2024-02-26T04:24:53;98971.53;;;7.22;88.58
84147;BME280;74267;50.434;7.398;2024-02-26T04:27:19;98969.59;;;7.18;88.34
84147;BME280;74267;50.434;7.398;2024-02-26T04:29:44;98973.81;;;7.19;89.13
84147;BME280;74267;50.434;7.398;2024-02-26T04:32:09;98974.25;;;7.16;89.28
84147;BME280;74267;50.434;7.398;2024-02-26T04:34:35;98984.63;;;7.22;88.92
84147;BME280;74267;50.434;7.398;2024-02-26T04:37:00;98984.50;;;7.17;89.77
84147;BME280;74267;50.434;7.398;2024-02-26T04:39:25;98981.47;;;7.02;90.12
84147;BME280;74267;50.434;7.398;2024-02-26T04:41:51;98977.28;;;7.01;89.92
84147;BME280;74267;50.434;7.398;2024-02-26T04:44:16;98983.16;;;6.97;88.94
84147;BME280;74267;50.434;7.398;2024-02-26T04:46:41;98978.97;;;6.96;89.58
84147;BME280;74267;50.434;7.398;2024-02-26T04:49:07;98978.97;;;6.96;89.11
84147;BME280;74267;50.434;7.398;2024-02-26T04:51:32;98980.09;;;7.00;88.95
84147;BME280;74267;50.434;7.398;2024-02-26T04:53:57;98984.53;;;6.99;88.95
84147;BME280;74267;50.434;7.398;2024-02-26T04:56:23;98981.91;;;6.99;88.85
84147;BME280;74267;50.434;7.398;2024-02-26T04:58:48;98987.16;;;6.99;88.65
84147;BME280;74267;50.434;7.398;2024-02-26T05:01:15;98991.38;;;7.00;88.76
84147;BME280;74267;50.434;7.398;2024-02-26T05:03:42;98988.63;;;6.95;89.44
84147;BME280;74267;50.434;7.398;2024-02-26T05:06:07;98995.47;;;6.96;89.20
84147;BME280;74267;50.434;7.398;2024-02-26T05:08:34;98991.09;;;6.90;90.11
84147;BME280;74267;50.434;7.398;2024-02-26T05:11:01;98987.69;;;6.90;89.37
84147;BME280;74267;50.434;7.398;2024-02-26T05:13:28;98996.78;;;6.87;88.66
84147;BME280;74267;50.434;7.398;2024-02-26T05:15:53;98989.94;;;6.86;89.02
84147;BME280;74267;50.434;7.398;2024-02-26T05:18:18;98995.19;;;6.86;89.86
84147;BME280;74267;50.434;7.398;2024-02-26T05:20:44;98989.59;;;6.83;89.31
84147;BME280;74267;50.434;7.398;2024-02-26T05:23:09;98991.97;;;6.84;89.61
84147;BME280;74267;50.434;7.398;2024-02-26T05:25:34;98994.44;;;6.79;90.13
84147;BME280;74267;50.434;7.398;2024-02-26T05:28:00;98995.63;;;6.83;88.94
84147;BME280;74267;50.434;7.398;2024-02-26T05:30:25;98991.25;;;6.77;90.19
84147;BME280;74267;50.434;7.398;2024-02-26T05:32:53;98992.41;;;6.81;90.18
84147;BME280;74267;50.434;7.398;2024-02-26T05:35:19;98988.00;;;6.82;90.41
84147;BME280;74267;50.434;7.398;2024-02-26T05:37:44;98989.81;;;6.81;91.06
84147;BME280;74267;50.434;7.398;2024-02-26T05:40:10;98992.41;;;6.81;90.64
84147;BME280;74267;50.434;7.398;2024-02-26T05:42:35;98995.25;;;6.80;90.03
84147;BME280;74267;50.434;7.398;2024-02-26T05:45:01;98997.66;;;6.81;90.12
84147;BME280;74267;50.434;7.398;2024-02-26T05:47:34;99002.88;;;6.81;89.98
84147;BME280;74267;50.434;7.398;2024-02-26T05:50:01;98993.88;;;6.77;90.27
84147;BME280;74267;50.434;7.398;2024-02-26T05:52:27;99003.69;;;6.82;90.08
84147;BME280;74267;50.434;7.398;2024-02-26T05:54:53;99000.03;;;6.83;89.64
84147;BME280;74267;50.434;7.398;2024-02-26T05:57:18;99009.34;;;6.79;90.22
84147;BME280;74267;50.434;7.398;2024-02-26T05:59:44;98998.50;;;6.75;89.12
84147;BME280;74267;50.434;7.398;2024-02-26T06:02:09;99001.34;;;6.74;89.38
84147;BME280;74267;50.434;7.398;2024-02-26T06:04:34;99002.16;;;6.74;89.53
84147;BME280;74267;50.434;7.398;2024-02-26T06:07:00;99015.25;;;6.74;90.46
84147;BME280;74267;50.434;7.398;2024-02-26T06:09:25;99007.38;;;6.74;90.20
84147;BME280;74267;50.434;7.398;2024-02-26T06:11:50;99014.22;;;6.75;89.42
84147;BME280;74267;50.434;7.398;2024-02-26T06:14:15;99019.00;;;6.78;90.63
84147;BME280;74267;50.434;7.398;2024-02-26T06:16:43;99022.28;;;6.74;90.69
84147;BME280;74267;50.434;7.398;2024-02-26T06:19:09;99024.09;;;6.73;90.25
84147;BME280;74267;50.434;7.398;2024-02-26T06:21:34;99027.16;;;6.70;89.68
84147;BME280;74267;50.434;7.398;2024-02-26T06:24:00;99029.78;;;6.70;90.66
84147;BME280;74267;50.434;7.398;2024-02-26T06:26:26;99032.94;;;6.72;90.15
84147;BME280;74267;50.434;7.398;2024-02-26T06:28:54;99038.19;;;6.72;89.87
84147;BME280;74267;50.434;7.398;2024-02-26T06:31:19;99035.56;;;6.72;89.74
84147;BME280;74267;50.434;7.398;2024-02-26T06:33:46;99039.59;;;6.75;90.77
84147;BME280;74267;50.434;7.398;2024-02-26T06:36:12;99043.41;;;6.72;90.44
84147;BME280;74267;50.434;7.398;2024-02-26T06:38:37;99050.09;;;6.68;90.83
84147;BME280;74267;50.434;7.398;2024-02-26T06:41:02;99054.16;;;6.64;91.08
84147;BME280;74267;50.434;7.398;2024-02-26T06:43:28;99060.84;;;6.78;91.70
84147;BME280;74267;50.434;7.398;2024-02-26T06:45:53;99056.78;;;6.82;91.19
84147;BME280;74267;50.434;7.398;2024-02-26T06:48:19;99067.47;;;6.81;90.69
84147;BME280;74267;50.434;7.398;2024-02-26T06:50:44;99066.69;;;6.80;90.67
84147;BME280;74267;50.434;7.398;2024-02-26T06:53:09;99069.72;;;6.77;91.34
84147;BME280;74267;50.434;7.398;2024-02-26T06:55:34;99076.53;;;6.78;90.63
84147;BME280;74267;50.434;7.398;2024-02-26T06:58:00;99071.31;;;6.78;90.70
84147;BME280;74267;50.434;7.398;2024-02-26T07:00:25;99077.78;;;6.76;90.90
84147;BME280;74267;50.434;7.398;2024-02-26T07:02:50;99078.13;;;6.79;91.08
84147;BME280;74267;50.434;7.398;2024-02-26T07:05:16;99079.75;;;6.80;90.34
84147;BME280;74267;50.434;7.398;2024-02-26T07:07:41;99078.13;;;6.79;91.00
84147;BME280;74267;50.434;7.398;2024-02-26T07:10:07;99080.91;;;6.84;90.84
84147;BME280;74267;50.434;7.398;2024-02-26T07:12:32;99085.34;;;6.84;90.24
84147;BME280;74267;50.434;7.398;2024-02-26T07:14:58;99087.59;;;6.80;91.07
84147;BME280;74267;50.434;7.398;2024-02-26T07:17:23;99096.59;;;6.84;91.02
84147;BME280;74267;50.434;7.398;2024-02-26T07:19:49;99100.97;;;6.90;90.41
84147;BME280;74267;50.434;7.398;2024-02-26T07:22:14;99099.34;;;6.89;90.97
84147;BME280;74267;50.434;7.398;2024-02-26T07:24:40;99096.31;;;6.92;91.49
84147;BME280;74267;50.434;7.398;2024-02-26T07:27:05;99098.94;;;6.92;90.01
84147;BME280;74267;50.434;7.398;2024-02-26T07:29:31;99107.78;;;6.91;90.81
84147;BME280;74267;50.434;7.398;2024-02-26T07:31:56;99109.25;;;6.87;91.10
84147;BME280;74267;50.434;7.398;2024-02-26T07:34:21;99106.47;;;6.82;90.36
84147;BME280;74267;50.434;7.398;2024-02-26T07:36:52;99113.75;;;6.80;91.09
84147;BME280;74267;50.434;7.398;2024-02-26T07:39:18;99112.31;;;6.84;90.41
84147;BME280;74267;50.434;7.398;2024-02-26T07:41:44;99110.72;;;6.83;89.96
84147;BME280;74267;50.434;7.398;2024-02-26T07:44:12;99105.91;;;6.80;91.31
84147;BME280;74267;50.434;7.398;2024-02-26T07:46:37;99109.38;;;6.92;90.39
84147;BME280;74267;50.434;7.398;2024-02-26T07:49:02;99109.25;;;6.87;90.17
84147;BME280;74267;50.434;7.398;2024-02-26T07:51:28;99111.91;;;6.81;90.15
84147;BME280;74267;50.434;7.398;2024-02-26T07:53:53;99114.75;;;6.79;90.38
84147;BME280;74267;50.434;7.398;2024-02-26T07:56:18;99115.22;;;6.76;91.50
84147;BME280;74267;50.434;7.398;2024-02-26T07:58:43;99117.59;;;6.78;90.56
84147;BME280;74267;50.434;7.398;2024-02-26T08:01:13;99119.63;;;6.76;90.28
84147;BME280;74267;50.434;7.398;2024-02-26T08:03:38;99131.69;;;6.77;90.72
84147;BME280;74267;50.434;7.398;2024-02-26T08:06:03;99131.03;;;6.81;91.29
84147;BME280;74267;50.434;7.398;2024-02-26T08:08:29;99137.88;;;6.82;91.54
84147;BME280;74267;50.434;7.398;2024-02-26T08:10:54;99146.91;;;6.86;91.31
84147;BME280;74267;50.434;7.398;2024-02-26T08:13:20;99145.06;;;6.87;91.52
84147;BME280;74267;50.434;7.398;2024-02-26T08:15:46;99147.34;;;6.83;90.90
84147;BME280;74267;50.434;7.398;2024-02-26T08:18:11;99141.88;;;6.85;91.46
84147;BME280;74267;50.434;7.398;2024-02-26T08:20:36;99150.69;;;6.90;91.00
84147;BME280;74267;50.434;7.398;2024-02-26T08:23:02;99138.03;;;6.87;91.28
84147;BME280;74267;50.434;7.398;2024-02-26T08:25:27;99148.41;;;6.94;91.98
84147;BME280;74267;50.434;7.398;2024-02-26T08:27:53;99149.22;;;6.94;91.61
84147;BME280;74267;50.434;7.398;2024-02-26T08:30:18;99164.50;;;6.97;91.15
84147;BME280;74267;50.434;7.398;2024-02-26T08:32:45;99174.16;;;6.97;91.65
84147;BME280;74267;50.434;7.398;2024-02-26T08:35:10;99175.38;;;6.94;91.10
84147;BME280;74267;50.434;7.398;2024-02-26T08:37:36;99175.38;;;6.94;91.99
84147;BME280;74267;50.434;7.398;2024-02-26T08:40:01;99180.53;;;7.01;91.15
84147;BME280;74267;50.434;7.398;2024-02-26T08:42:29;99186.59;;;7.01;90.77
84147;BME280;74267;50.434;7.398;2024-02-26T08:44:54;99183.97;;;7.01;90.96
84147;BME280;74267;50.434;7.398;2024-02-26T08:47:19;99185.00;;;7.00;91.42
84147;BME280;74267;50.434;7.398;2024-02-26T08:49:45;99188.97;;;7.03;91.83
84147;BME280;74267;50.434;7.398;2024-02-26T08:52:11;99182.94;;;7.02;91.71
84147;BME280;74267;50.434;7.398;2024-02-26T08:54:36;99194.28;;;6.96;91.23
84147;BME280;74267;50.434;7.398;2024-02-26T08:57:02;99189.63;;;6.98;90.67
84147;BME280;74267;50.434;7.398;2024-02-26T08:59:28;99183.06;;;6.89;89.98
84147;BME280;74267;50.434;7.398;2024-02-26T09:01:53;99193.09;;;6.92;90.45
84147;BME280;74267;50.434;7.398;2024-02-26T09:04:18;99198.34;;;6.92;90.40
84147;BME280;74267;50.434;7.398;2024-02-26T09:06:44;99205.19;;;6.93;90.14
84147;BME280;74267;50.434;7.398;2024-02-26T09:09:09;99207.81;;;6.93;91.10
84147;BME280;74267;50.434;7.398;2024-02-26T09:11:34;99211.59;;;6.97;91.54
84147;BME280;74267;50.434;7.398;2024-02-26T09:14:00;99206.78;;;6.94;91.36
84147;BME280;74267;50.434;7.398;2024-02-26T09:16:25;99207.59;;;6.95;91.04
84147;BME280;74267;50.434;7.398;2024-02-26T09:18:50;99209.53;;;6.99;90.85
84147;BME280;74267;50.434;7.398;2024-02-26T09:21:16;99213.19;;;6.98;90.51
84147;BME280;74267;50.434;7.398;2024-02-26T09:23:48;99213.19;;;6.98;91.44
84147;BME280;74267;50.434;7.398;2024-02-26T09:26:13;99215.78;;;6.98;91.29
84147;BME280;74267;50.434;7.398;2024-02-26T09:28:38;99212.75;;;7.01;92.23
84147;BME280;74267;50.434;7.398;2024-02-26T09:31:04;99222.06;;;6.97;92.51
84147;BME280;74267;50.434;7.398;2024-02-26T09:33:30;99222.91;;;6.91;91.69
84147;BME280;74267;50.434;7.398;2024-02-26T09:35:55;99221.88;;;6.92;91.97
84147;BME280;74267;50.434;7.398;2024-02-26T09:38:21;99222.91;;;6.91;91.61
84147;BME280;74267;50.434;7.398;2024-02-26T09:40:46;99220.16;;;6.86;91.03
84147;BME280;74267;50.434;7.398;2024-02-26T09:43:14;99228.56;;;6.88;90.98
84147;BME280;74267;50.434;7.398;2024-02-26T09:45:41;99220.94;;;6.87;90.41
84147;BME280;74267;50.434;7.398;2024-02-26T09:48:08;99229.59;;;6.87;90.67
84147;BME280;74267;50.434;7.398;2024-02-26T09:50:34;99224.34;;;6.87;90.67
84147;BME280;74267;50.434;7.398;2024-02-26T09:52:59;99227.13;;;6.92;89.97
84147;BME280;74267;50.434;7.398;2024-02-26T09:55:27;99229.47;;;7.00;91.21
84147;BME280;74267;50.434;7.398;2024-02-26T09:57:53;99232.97;;;7.12;89.49
84147;BME280;74267;50.434;7.398;2024-02-26T10:00:21;99241.25;;;7.09;89.97
84147;BME280;74267;50.434;7.398;2024-02-26T10:02:47;99236.28;;;7.01;89.54
84147;BME280;74267;50.434;7.398;2024-02-26T10:05:16;99239.34;;;6.98;89.28
84147;BME280;74267;50.434;7.398;2024-02-26T10:07:43;99236.91;;;7.03;90.42
84147;BME280;74267;50.434;7.398;2024-02-26T10:10:09;99241.25;;;7.09;89.62
84147;BME280;74267;50.434;7.398;2024-02-26T10:12:35;99246.03;;;7.12;89.60
84147;BME280;74267;50.434;7.398;2024-02-26T10:15:00;99253.66;;;7.20;90.24
84147;BME280;74267;50.434;7.398;2024-02-26T10:17:26;99241.84;;;7.29;89.04
84147;BME280;74267;50.434;7.398;2024-02-26T10:19:52;99244.63;;;7.34;89.56
84147;BME280;74267;50.434;7.398;2024-02-26T10:22:22;99253.09;;;7.36;89.58
84147;BME280;74267;50.434;7.398;2024-02-26T10:24:47;99245.22;;;7.36;88.60
84147;BME280;74267;50.434;7.398;2024-02-26T10:27:14;99257.22;;;7.44;88.33
84147;BME280;74267;50.434;7.398;2024-02-26T10:29:40;99259.19;;;7.48;88.90
84147;BME280;74267;50.434;7.398;2024-02-26T10:32:07;99267.91;;;7.42;88.42
84147;BME280;74267;50.434;7.398;2024-02-26T10:34:32;99269.97;;;7.40;89.11
84147;BME280;74267;50.434;7.398;2024-02-26T10:37:01;99267.03;;;7.48;89.47
84147;BME280;74267;50.434;7.398;2024-02-26T10:39:26;99279.91;;;7.50;88.45
84147;BME280;74267;50.434;7.398;2024-02-26T10:41:51;99282.19;;;7.46;88.88
84147;BME280;74267;50.434;7.398;2024-02-26T10:44:17;99285.25;;;7.43;88.46
84147;BME280;74267;50.434;7.398;2024-02-26T10:46:46;99284.00;;;7.46;88.93
84147;BME280;74267;50.434;7.398;2024-02-26T10:49:15;99292.88;;;7.45;89.03
84147;BME280;74267;50.434;7.398;2024-02-26T10:51:46;99287.44;;;7.46;88.34
84147;BME280;74267;50.434;7.398;2024-02-26T10:54:16;99301.25;;;7.53;88.72
84147;BME280;74267;50.434;7.398;2024-02-26T10:56:41;99296.38;;;7.57;89.13
84147;BME280;74267;50.434;7.398;2024-02-26T10:59:09;99305.16;;;7.63;88.01
84147;BME280;74267;50.434;7.398;2024-02-26T11:01:35;99304.16;;;7.64;88.53
84147;BME280;74267;50.434;7.398;2024-02-26T11:04:03;99308.81;;;7.62;89.23
84147;BME280;74267;50.434;7.398;2024-02-26T11:06:28;99308.81;;;7.62;89.15
84147;BME280;74267;50.434;7.398;2024-02-26T11:08:54;99313.03;;;7.63;88.08
84147;BME280;74267;50.434;7.398;2024-02-26T11:11:23;99323.38;;;7.57;88.63
84147;BME280;74267;50.434;7.398;2024-02-26T11:13:51;99319.38;;;7.55;88.33
84147;BME280;74267;50.434;7.398;2024-02-26T11:16:18;99321.31;;;7.59;89.01
84147;BME280;74267;50.434;7.398;2024-02-26T11:18:43;99326.56;;;7.59;89.11
84147;BME280;74267;50.434;7.398;2024-02-26T11:21:15;99330.16;;;7.65;88.41
84147;BME280;74267;50.434;7.398;2024-02-26T11:23:41;99325.03;;;7.70;88.45
84147;BME280;74267;50.434;7.398;2024-02-26T11:26:07;99327.59;;;7.77;87.86
84147;BME280;74267;50.434;7.398;2024-02-26T11:28:34;99322.38;;;7.77;88.47
84147;BME280;74267;50.434;7.398;2024-02-26T11:31:00;99316.97;;;7.72;88.42
84147;BME280;74267;50.434;7.398;2024-02-26T11:33:27;99328.03;;;7.74;88.57
84147;BME280;74267;50.434;7.398;2024-02-26T11:35:53;99332.78;;;7.83;87.84
84147;BME280;74267;50.434;7.398;2024-02-26T11:38:20;99326.28;;;7.86;87.71
84147;BME280;74267;50.434;7.398;2024-02-26T11:40:49;99323.53;;;7.81;88.32
84147;BME280;74267;50.434;7.398;2024-02-26T11:43:15;99321.94;;;7.80;87.92
84147;BME280;74267;50.434;7.398;2024-02-26T11:48:22;99323.38;;;7.94;87.85
84147;BME280;74267;50.434;7.398;2024-02-26T11:50:55;99319.75;;;7.95;87.88
84147;BME280;74267;50.434;7.398;2024-02-26T11:59:04;99326.66;;;7.89;87.92
84147;BME280;74267;50.434;7.398;2024-02-26T12:01:47;99329.50;;;7.88;88.13
84147;BME280;74267;50.434;7.398;2024-02-26T12:04:24;99326.88;;;7.88;88.70
84147;BME280;74267;50.434;7.398;2024-02-26T12:07:02;99337.00;;;8.02;88.55
84147;BME280;74267;50.434;7.398;2024-02-26T12:12:05;99346.84;;;8.07;88.22
84147;BME280;74267;50.434;7.398;2024-02-26T12:14:39;99350.22;;;8.07;87.83
84147;BME280;74267;50.434;7.398;2024-02-26T12:17:07;99356.41;;;8.13;87.64
84147;BME280;74267;50.434;7.398;2024-02-26T12:19:43;99351.91;;;8.02;88.93
84147;BME280;74267;50.434;7.398;2024-02-26T12:22:13;99359.66;;;7.97;88.71
84147;BME280;74267;50.434;7.398;2024-02-26T12:24:38;99368.50;;;7.96;89.12
84147;BME280;74267;50.434;7.398;2024-02-26T12:27:03;99367.63;;;8.02;89.02
84147;BME280;74267;50.434;7.398;2024-02-26T12:29:29;99367.63;;;8.02;89.23
84147;BME280;74267;50.434;7.398;2024-02-26T12:31:54;99359.78;;;8.02;88.72
84147;BME280;74267;50.434;7.398;2024-02-26T12:34:20;99373.16;;;8.12;89.02
84147;BME280;74267;50.434;7.398;2024-02-26T12:36:45;99370.84;;;8.04;87.92
84147;BME280;74267;50.434;7.398;2024-02-26T12:39:11;99378.56;;;7.99;88.61
84147;BME280;74267;50.434;7.398;2024-02-26T12:41:38;99392.25;;;8.01;88.40
84147;BME280;74267;50.434;7.398;2024-02-26T12:44:04;99385.41;;;8.00;87.67
84147;BME280;74267;50.434;7.398;2024-02-26T12:46:29;99391.81;;;8.04;87.84
84147;BME280;74267;50.434;7.398;2024-02-26T12:48:56;99390.97;;;8.10;87.75
84147;BME280;74267;50.434;7.398;2024-02-26T12:51:23;99392.16;;;8.07;87.91
84147;BME280;74267;50.434;7.398;2024-02-26T12:53:50;99400.69;;;8.03;87.54
84147;BME280;74267;50.434;7.398;2024-02-26T12:56:18;99396.25;;;8.03;86.66
84147;BME280;74267;50.434;7.398;2024-02-26T12:58:44;99397.50;;;8.01;87.21
84147;BME280;74267;50.434;7.398;2024-02-26T13:01:15;99397.41;;;8.07;87.23
84147;BME280;74267;50.434;7.398;2024-02-26T13:03:42;99404.13;;;8.03;86.78
84147;BME280;74267;50.434;7.398;2024-02-26T13:06:08;99403.09;;;8.04;87.77
84147;BME280;74267;50.434;7.398;2024-02-26T13:08:34;99401.50;;;8.03;88.15
84147;BME280;74267;50.434;7.398;2024-02-26T13:10:59;99410.31;;;8.09;87.55
84147;BME280;74267;50.434;7.398;2024-02-26T13:13:25;99411.94;;;8.10;87.22
84147;BME280;74267;50.434;7.398;2024-02-26T13:16:01;99417.91;;;8.17;87.13